Time;durP1;ratioP1;P1;durP2;ratioP2;P2;SDS_P1;SDS_P2;PMS_P1;PMS_P2;Temp;Humidity;BMP_temperature;BMP_pressure;BME280_temperature;BME280_humidity;BME280_pressure;Samples;Min_cycle;Max_cycle;Signal;HPM_P1;HPM_P2
2022/06/24 00:01:28;;;;;;;;;;;14.30;99.90;;;;;;5055978;28;19931;-75
2022/06/24 00:03:54;;;;;;;;;;;14.40;99.90;;;;;;5055437;28;19988;-76
2022/06/24 00:06:21;;;;;;;;;;;14.50;99.90;;;;;;5055951;28;19909;-77
2022/06/24 00:08:49;;;;;;;;;;;14.50;99.90;;;;;;5055871;28;19952;-75
2022/06/24 00:11:16;;;;;;;;;;;14.60;99.90;;;;;;5055588;28;19958;-77
2022/06/24 00:13:43;;;;;;;;;;;14.60;99.90;;;;;;5055336;28;19917;-77
2022/06/24 00:16:10;;;;;;;;;;;14.60;99.90;;;;;;5055538;28;19920;-76
2022/06/24 00:18:37;;;;;;;;;;;14.60;99.90;;;;;;5055494;28;19917;-76
2022/06/24 00:21:10;;;;;;;;;;;14.60;99.90;;;;;;5055445;28;19913;-77
2022/06/24 00:23:39;;;;;;;;;;;14.80;99.90;;;;;;5055346;28;20364;-77
2022/06/24 00:26:06;;;;;;;;;;;14.90;99.90;;;;;;5055441;28;20019;-76
2022/06/24 00:28:33;;;;;;;;;;;15.00;99.90;;;;;;5055613;28;19948;-74
2022/06/24 00:31:02;;;;;;;;;;;15.10;99.90;;;;;;5055341;28;20383;-74
2022/06/24 00:33:33;;;;;;;;;;;15.00;99.90;;;;;;5055234;28;19916;-75
2022/06/24 00:36:05;;;;;;;;;;;15.00;99.90;;;;;;5055309;28;19912;-75
2022/06/24 00:38:36;;;;;;;;;;;15.00;99.90;;;;;;5055259;28;20328;-74
2022/06/24 00:41:10;;;;;;;;;;;15.00;99.90;;;;;;5055343;28;19909;-73
2022/06/24 00:43:45;;;;;;;;;;;15.10;99.90;;;;;;5055151;28;20348;-75
2022/06/24 00:46:12;;;;;;;;;;;15.10;99.90;;;;;;5055110;28;19935;-73
2022/06/24 00:48:43;;;;;;;;;;;15.10;99.90;;;;;;5055143;28;20275;-73
2022/06/24 00:51:09;;;;;;;;;;;15.10;99.90;;;;;;5054893;28;20020;-74
2022/06/24 00:53:40;;;;;;;;;;;15.20;99.90;;;;;;5054650;28;19921;-73
2022/06/24 00:56:09;;;;;;;;;;;15.10;99.90;;;;;;5054902;28;19909;-75
2022/06/24 00:58:37;;;;;;;;;;;15.10;99.90;;;;;;5053549;28;19916;-76
2022/06/24 01:01:03;;;;;;;;;;;15.20;99.90;;;;;;5054988;28;19999;-75
2022/06/24 01:03:37;;;;;;;;;;;15.30;99.90;;;;;;5054699;28;20024;-73
2022/06/24 01:06:04;;;;;;;;;;;15.40;99.90;;;;;;5054857;28;19944;-75
2022/06/24 01:08:31;;;;;;;;;;;15.50;99.90;;;;;;5054752;28;19909;-76
2022/06/24 01:10:59;;;;;;;;;;;15.60;99.90;;;;;;5054557;28;19909;-76
2022/06/24 01:13:27;;;;;;;;;;;15.60;99.90;;;;;;5054611;28;19962;-76
2022/06/24 01:15:54;;;;;;;;;;;15.70;99.90;;;;;;5054422;28;19920;-75
2022/06/24 01:18:24;;;;;;;;;;;15.80;99.90;;;;;;5054416;28;19975;-75
2022/06/24 01:20:51;;;;;;;;;;;15.80;99.90;;;;;;5054537;28;19939;-76
2022/06/24 01:23:24;;;;;;;;;;;15.70;99.90;;;;;;5054603;28;19909;-75
2022/06/24 01:25:52;;;;;;;;;;;15.80;99.90;;;;;;5054120;28;19908;-73
2022/06/24 01:28:19;;;;;;;;;;;15.80;99.90;;;;;;5054336;28;19909;-73
2022/06/24 01:30:45;;;;;;;;;;;15.70;99.90;;;;;;5054381;28;19976;-73
2022/06/24 01:33:12;;;;;;;;;;;15.70;99.90;;;;;;5054213;28;19919;-73
2022/06/24 01:35:39;;;;;;;;;;;15.70;99.90;;;;;;5054006;28;19915;-73
2022/06/24 01:38:05;;;;;;;;;;;15.70;99.90;;;;;;5054169;28;20307;-74
2022/06/24 01:40:32;;;;;;;;;;;15.70;99.90;;;;;;5054113;28;19912;-73
2022/06/24 01:43:00;;;;;;;;;;;15.80;99.90;;;;;;5054084;28;19909;-73
2022/06/24 01:45:27;;;;;;;;;;;15.80;99.90;;;;;;5054063;28;19909;-73
2022/06/24 01:47:54;;;;;;;;;;;15.80;99.90;;;;;;5053664;28;19909;-74
2022/06/24 01:50:21;;;;;;;;;;;15.80;99.90;;;;;;5053907;28;19913;-74
2022/06/24 01:52:47;;;;;;;;;;;15.80;99.90;;;;;;5053656;28;20318;-73
2022/06/24 01:55:14;;;;;;;;;;;15.80;99.90;;;;;;5053889;28;19951;-74
2022/06/24 01:57:41;;;;;;;;;;;15.80;99.90;;;;;;5053647;28;19917;-73
2022/06/24 02:00:08;;;;;;;;;;;15.80;99.90;;;;;;5053766;28;19960;-73
2022/06/24 02:02:34;;;;;;;;;;;15.80;99.90;;;;;;5053206;28;19916;-74
2022/06/24 02:05:05;;;;;;;;;;;15.90;99.90;;;;;;5052954;28;20204;-73
2022/06/24 02:07:31;;;;;;;;;;;15.90;99.90;;;;;;5053525;28;19971;-73
2022/06/24 02:15:27;;;;;;;;;;;16.00;99.90;;;;;;5053743;28;20291;-73
2022/06/24 02:17:54;;;;;;;;;;;16.00;99.90;;;;;;5053018;28;19959;-72
2022/06/24 02:20:21;;;;;;;;;;;16.00;99.90;;;;;;5053444;28;19930;-73
2022/06/24 02:22:47;;;;;;;;;;;16.00;99.90;;;;;;5053539;28;19909;-73
2022/06/24 02:25:14;;;;;;;;;;;16.10;99.90;;;;;;5053566;28;19909;-73
2022/06/24 02:27:41;;;;;;;;;;;16.10;99.90;;;;;;5053106;28;19948;-73
2022/06/24 02:30:08;;;;;;;;;;;16.10;99.90;;;;;;5053221;28;19931;-73
2022/06/24 02:32:34;;;;;;;;;;;16.10;99.90;;;;;;5053092;28;19932;-73
2022/06/24 02:35:01;;;;;;;;;;;16.20;99.90;;;;;;5053094;28;19959;-73
2022/06/24 02:37:28;;;;;;;;;;;16.20;99.90;;;;;;5053135;28;19912;-73
2022/06/24 02:39:54;;;;;;;;;;;16.20;99.90;;;;;;5053058;28;19912;-73
2022/06/24 02:42:21;;;;;;;;;;;16.30;99.90;;;;;;5053065;28;19947;-73
2022/06/24 02:44:48;;;;;;;;;;;16.30;99.90;;;;;;5053143;28;19909;-73
2022/06/24 02:47:14;;;;;;;;;;;16.40;99.90;;;;;;5053051;28;19909;-73
2022/06/24 02:49:41;;;;;;;;;;;16.30;99.90;;;;;;5052830;28;20279;-73
2022/06/24 02:52:11;;;;;;;;;;;16.30;99.90;;;;;;5053226;28;20364;-74
2022/06/24 02:54:38;;;;;;;;;;;16.40;99.90;;;;;;5053060;28;19933;-73
2022/06/24 02:57:05;;;;;;;;;;;16.40;99.90;;;;;;5053053;28;20359;-76
2022/06/24 02:59:32;;;;;;;;;;;16.50;99.90;;;;;;5052979;28;20380;-73
2022/06/24 03:01:59;;;;;;;;;;;16.60;99.90;;;;;;5052870;28;19916;-73
2022/06/24 03:04:25;;;;;;;;;;;16.60;99.90;;;;;;5052988;28;19909;-73
2022/06/24 03:06:52;;;;;;;;;;;16.60;99.90;;;;;;5052907;28;19959;-73
2022/06/24 03:09:19;;;;;;;;;;;16.50;99.90;;;;;;5052956;28;20379;-73
2022/06/24 03:11:45;;;;;;;;;;;16.60;99.90;;;;;;5052760;28;19909;-74
2022/06/24 03:14:12;;;;;;;;;;;16.50;99.90;;;;;;5053567;28;19913;-73
2022/06/24 03:16:39;;;;;;;;;;;16.50;99.90;;;;;;5056681;28;19909;-74
2022/06/24 03:19:06;;;;;;;;;;;16.50;99.90;;;;;;5056716;28;20011;-73
2022/06/24 03:21:32;;;;;;;;;;;16.60;99.90;;;;;;5056656;28;20358;-73
2022/06/24 03:23:59;;;;;;;;;;;16.60;99.90;;;;;;5056800;28;19909;-73
2022/06/24 03:26:26;;;;;;;;;;;16.80;99.90;;;;;;5056920;28;20359;-74
2022/06/24 03:28:53;;;;;;;;;;;16.90;99.90;;;;;;5056769;28;20408;-73
2022/06/24 03:31:19;;;;;;;;;;;16.80;99.90;;;;;;5056769;28;20281;-73
2022/06/24 03:33:46;;;;;;;;;;;16.70;99.90;;;;;;5056397;28;19913;-73
2022/06/24 03:36:13;;;;;;;;;;;16.80;99.90;;;;;;5056736;28;19909;-74
2022/06/24 03:38:40;;;;;;;;;;;16.80;99.90;;;;;;5056547;28;19917;-73
2022/06/24 03:41:06;;;;;;;;;;;16.80;99.90;;;;;;5056385;28;20356;-73
2022/06/24 03:43:33;;;;;;;;;;;16.80;99.90;;;;;;5056433;28;19951;-74
2022/06/24 03:46:01;;;;;;;;;;;16.80;99.90;;;;;;5056255;28;19909;-74
2022/06/24 03:48:29;;;;;;;;;;;16.80;99.90;;;;;;5056179;28;19909;-74
2022/06/24 03:50:56;;;;;;;;;;;16.70;99.90;;;;;;5056150;28;19934;-74
2022/06/24 03:53:22;;;;;;;;;;;16.70;99.90;;;;;;5055990;28;19928;-74
2022/06/24 03:55:52;;;;;;;;;;;16.80;99.90;;;;;;5055998;28;19921;-73
2022/06/24 03:58:19;;;;;;;;;;;16.90;99.90;;;;;;5056070;28;19917;-73
2022/06/24 04:00:46;;;;;;;;;;;16.90;99.90;;;;;;5056060;28;19916;-73
2022/06/24 04:03:13;;;;;;;;;;;16.70;99.90;;;;;;5056097;28;20376;-73
2022/06/24 04:05:39;;;;;;;;;;;16.80;99.90;;;;;;5055805;28;19909;-73
2022/06/24 04:08:07;;;;;;;;;;;16.70;99.90;;;;;;5056000;28;20427;-73
2022/06/24 04:10:34;;;;;;;;;;;16.70;99.90;;;;;;5055941;28;19909;-73
2022/06/24 04:13:00;;;;;;;;;;;16.80;99.90;;;;;;5056030;28;19909;-74
2022/06/24 04:15:27;;;;;;;;;;;16.70;99.90;;;;;;5055887;28;19995;-75
2022/06/24 04:17:54;;;;;;;;;;;16.70;99.90;;;;;;5055296;28;19916;-73
2022/06/24 04:20:21;;;;;;;;;;;16.70;99.90;;;;;;5055790;28;20064;-73
2022/06/24 04:22:48;;;;;;;;;;;16.80;99.90;;;;;;5055666;28;19909;-74
2022/06/24 04:25:15;;;;;;;;;;;16.70;99.90;;;;;;5055167;28;20003;-74
2022/06/24 04:27:41;;;;;;;;;;;16.70;99.90;;;;;;5055373;28;19909;-73
2022/06/24 04:30:09;;;;;;;;;;;16.70;99.90;;;;;;5055515;28;19913;-74
2022/06/24 04:32:36;;;;;;;;;;;16.60;99.90;;;;;;5055107;28;19909;-75
2022/06/24 04:35:03;;;;;;;;;;;16.60;99.90;;;;;;5055404;28;20279;-74
2022/06/24 04:37:30;;;;;;;;;;;16.50;99.90;;;;;;5055158;28;19917;-74
2022/06/24 04:39:58;;;;;;;;;;;16.60;99.90;;;;;;5055216;28;19909;-76
2022/06/24 04:42:24;;;;;;;;;;;16.60;99.90;;;;;;5055177;28;20022;-75
2022/06/24 04:44:51;;;;;;;;;;;16.50;99.90;;;;;;5055118;28;19909;-76
2022/06/24 04:47:19;;;;;;;;;;;16.40;99.90;;;;;;5055211;28;19916;-76
2022/06/24 04:49:45;;;;;;;;;;;16.30;99.90;;;;;;5054902;28;20003;-76
2022/06/24 04:52:12;;;;;;;;;;;16.20;99.90;;;;;;5055026;28;19917;-76
2022/06/24 04:54:39;;;;;;;;;;;16.30;99.90;;;;;;5054903;28;19917;-76
2022/06/24 04:57:06;;;;;;;;;;;16.30;99.90;;;;;;5054852;28;19908;-76
2022/06/24 04:59:32;;;;;;;;;;;16.40;99.90;;;;;;5054753;28;19920;-76
2022/06/24 05:01:59;;;;;;;;;;;16.30;99.90;;;;;;5054738;28;20422;-74
2022/06/24 05:04:26;;;;;;;;;;;16.20;99.90;;;;;;5054895;28;19909;-76
2022/06/24 05:06:52;;;;;;;;;;;16.20;99.90;;;;;;5054665;28;19909;-76
2022/06/24 05:09:19;;;;;;;;;;;16.20;99.90;;;;;;5054405;28;19940;-76
2022/06/24 05:11:48;;;;;;;;;;;16.20;99.90;;;;;;5053853;28;20306;-76
2022/06/24 05:14:15;;;;;;;;;;;16.30;99.90;;;;;;5054534;28;19909;-77
2022/06/24 05:16:42;;;;;;;;;;;16.30;99.90;;;;;;5054481;28;19954;-77
2022/06/24 05:19:11;;;;;;;;;;;16.30;99.90;;;;;;5054193;28;19924;-76
2022/06/24 05:21:37;;;;;;;;;;;16.20;99.90;;;;;;5054076;28;19999;-76
2022/06/24 05:24:04;;;;;;;;;;;16.30;99.90;;;;;;5054238;28;19908;-76
2022/06/24 05:26:31;;;;;;;;;;;16.30;99.90;;;;;;5054176;28;20359;-75
2022/06/24 05:28:58;;;;;;;;;;;16.40;99.90;;;;;;5054036;28;19909;-76
2022/06/24 05:31:24;;;;;;;;;;;16.40;99.90;;;;;;5053926;28;19915;-76
2022/06/24 05:33:51;;;;;;;;;;;16.40;99.90;;;;;;5053945;28;19915;-76
2022/06/24 05:36:18;;;;;;;;;;;16.40;99.90;;;;;;5054085;28;19915;-76
2022/06/24 05:38:46;;;;;;;;;;;16.40;99.90;;;;;;5053522;28;19916;-76
2022/06/24 05:41:13;;;;;;;;;;;16.20;99.90;;;;;;5054145;28;19987;-76
2022/06/24 05:43:40;;;;;;;;;;;16.20;99.90;;;;;;5053805;28;19962;-76
2022/06/24 05:46:06;;;;;;;;;;;16.10;99.90;;;;;;5053921;28;19909;-76
2022/06/24 05:48:33;;;;;;;;;;;16.10;99.90;;;;;;5053800;28;19963;-76
2022/06/24 05:51:00;;;;;;;;;;;16.10;99.90;;;;;;5053845;28;20109;-76
2022/06/24 05:56:12;;;;;;;;;;;15.90;99.90;;;;;;5054163;28;19967;-75
2022/06/24 05:58:39;;;;;;;;;;;15.80;99.90;;;;;;5053727;28;19923;-75
2022/06/24 06:01:12;;;;;;;;;;;15.70;99.90;;;;;;5053481;28;19909;-76
2022/06/24 06:03:39;;;;;;;;;;;15.60;99.90;;;;;;5053564;28;19913;-75
2022/06/24 06:06:06;;;;;;;;;;;15.60;99.90;;;;;;5053583;28;20019;-75
2022/06/24 06:08:33;;;;;;;;;;;15.50;99.90;;;;;;5053776;28;19909;-75
2022/06/24 06:11:00;;;;;;;;;;;15.50;99.90;;;;;;5053511;28;20300;-75
2022/06/24 06:13:27;;;;;;;;;;;15.60;99.90;;;;;;5053444;28;19909;-76
2022/06/24 06:15:54;;;;;;;;;;;15.50;99.90;;;;;;5053015;28;20070;-74
2022/06/24 06:18:21;;;;;;;;;;;15.50;99.90;;;;;;5053447;28;20295;-75
2022/06/24 06:20:47;;;;;;;;;;;15.50;99.90;;;;;;5053544;28;20379;-74
2022/06/24 06:23:14;;;;;;;;;;;15.50;99.90;;;;;;5053540;28;19912;-74
2022/06/24 06:25:41;;;;;;;;;;;15.50;99.90;;;;;;5053118;28;20092;-73
2022/06/24 06:28:07;;;;;;;;;;;15.50;99.90;;;;;;5053235;28;19915;-75
2022/06/24 06:30:34;;;;;;;;;;;15.60;99.90;;;;;;5053237;28;19909;-73
2022/06/24 06:33:01;;;;;;;;;;;15.50;99.90;;;;;;5053228;28;20356;-75
2022/06/24 06:35:28;;;;;;;;;;;15.40;99.90;;;;;;5053301;28;19951;-75
2022/06/24 06:37:55;;;;;;;;;;;15.30;99.90;;;;;;5053168;28;19986;-75
2022/06/24 06:40:22;;;;;;;;;;;15.30;99.90;;;;;;5053259;28;19962;-74
2022/06/24 06:42:52;;;;;;;;;;;15.20;99.90;;;;;;5053022;28;19912;-75
2022/06/24 06:45:20;;;;;;;;;;;15.20;99.90;;;;;;5053129;28;19909;-74
2022/06/24 06:47:46;;;;;;;;;;;15.20;99.90;;;;;;5052765;28;19908;-76
2022/06/24 06:50:13;;;;;;;;;;;15.10;99.90;;;;;;5053021;28;19916;-76
2022/06/24 06:52:40;;;;;;;;;;;15.10;99.90;;;;;;5050169;28;20371;-75
2022/06/24 06:55:07;;;;;;;;;;;15.10;99.90;;;;;;5050599;28;19988;-75
2022/06/24 06:57:34;;;;;;;;;;;15.10;99.90;;;;;;5050654;28;19921;-76
2022/06/24 07:00:00;;;;;;;;;;;15.00;99.90;;;;;;5050931;28;19924;-75
2022/06/24 07:02:27;;;;;;;;;;;15.00;99.90;;;;;;5050707;28;19913;-76
2022/06/24 07:04:54;;;;;;;;;;;15.00;99.90;;;;;;5050410;28;20382;-75
2022/06/24 07:07:20;;;;;;;;;;;15.00;99.90;;;;;;5050771;28;19920;-76
2022/06/24 07:09:47;;;;;;;;;;;14.90;99.90;;;;;;5050560;28;19909;-75
2022/06/24 07:12:14;;;;;;;;;;;14.90;99.90;;;;;;5050817;28;19909;-76
2022/06/24 07:14:41;;;;;;;;;;;14.90;99.90;;;;;;5050614;28;19909;-75
2022/06/24 07:17:08;;;;;;;;;;;14.80;99.90;;;;;;5050161;28;20386;-76
2022/06/24 07:19:35;;;;;;;;;;;14.90;99.90;;;;;;5050466;28;19920;-76
2022/06/24 07:22:02;;;;;;;;;;;14.80;99.90;;;;;;5050759;28;20356;-79
2022/06/24 07:24:29;;;;;;;;;;;14.90;99.90;;;;;;5050618;28;19909;-76
2022/06/24 07:26:56;;;;;;;;;;;14.80;99.90;;;;;;5050783;28;19909;-76
2022/06/24 07:29:22;;;;;;;;;;;15.00;99.90;;;;;;5050524;28;19909;-77
2022/06/24 07:31:49;;;;;;;;;;;15.20;99.90;;;;;;5050141;28;19913;-76
2022/06/24 07:34:16;;;;;;;;;;;15.20;99.90;;;;;;5050645;28;19916;-76
2022/06/24 07:36:43;;;;;;;;;;;15.30;99.90;;;;;;5050552;28;19919;-76
2022/06/24 07:39:10;;;;;;;;;;;15.40;99.90;;;;;;5050541;28;20047;-76
2022/06/24 07:41:37;;;;;;;;;;;15.40;99.90;;;;;;5050216;28;19974;-76
2022/06/24 07:44:03;;;;;;;;;;;15.40;99.90;;;;;;5050081;28;20402;-76
2022/06/24 07:46:30;;;;;;;;;;;15.40;99.90;;;;;;5050418;28;19982;-76
2022/06/24 07:48:57;;;;;;;;;;;15.50;99.90;;;;;;5050424;28;19909;-77
2022/06/24 07:51:24;;;;;;;;;;;15.50;99.90;;;;;;5050438;28;19966;-77
2022/06/24 07:53:50;;;;;;;;;;;15.50;99.90;;;;;;5050172;28;20002;-77
2022/06/24 07:59:02;;;;;;;;;;;15.30;99.90;;;;;;5050328;28;19975;-77
2022/06/24 08:01:29;;;;;;;;;;;15.30;99.90;;;;;;5052595;28;20378;-76
2022/06/24 08:03:56;;;;;;;;;;;15.30;99.90;;;;;;5053750;28;19919;-77
2022/06/24 08:06:22;;;;;;;;;;;15.20;99.90;;;;;;5053765;28;19996;-77
2022/06/24 08:08:49;;;;;;;;;;;15.20;99.90;;;;;;5053845;28;19913;-77
2022/06/24 08:11:16;;;;;;;;;;;15.10;99.90;;;;;;5053466;28;20374;-77
2022/06/24 08:13:42;;;;;;;;;;;15.20;99.90;;;;;;5053534;28;19909;-77
2022/06/24 08:16:09;;;;;;;;;;;15.20;99.90;;;;;;5053574;28;19909;-77
2022/06/24 08:18:36;;;;;;;;;;;15.20;99.90;;;;;;5053471;28;19917;-77
2022/06/24 08:21:02;;;;;;;;;;;15.20;99.90;;;;;;5053626;28;19909;-77
2022/06/24 08:23:29;;;;;;;;;;;15.10;99.90;;;;;;5053285;28;19916;-77
2022/06/24 08:25:56;;;;;;;;;;;15.10;99.90;;;;;;5053566;28;19913;-77
2022/06/24 08:28:22;;;;;;;;;;;15.00;99.90;;;;;;5053377;28;19958;-77
2022/06/24 08:30:49;;;;;;;;;;;15.00;99.90;;;;;;5053216;28;19913;-76
2022/06/24 08:33:16;;;;;;;;;;;15.10;99.90;;;;;;5053404;28;20295;-77
2022/06/24 08:35:43;;;;;;;;;;;15.00;99.90;;;;;;5053058;28;20007;-76
2022/06/24 08:38:09;;;;;;;;;;;15.10;99.90;;;;;;5053297;28;20370;-77
2022/06/24 08:40:36;;;;;;;;;;;15.10;99.90;;;;;;5053164;28;20308;-77
2022/06/24 08:43:03;;;;;;;;;;;15.10;99.90;;;;;;5053313;28;19909;-77
2022/06/24 08:45:30;;;;;;;;;;;15.10;99.90;;;;;;5053151;28;19912;-77
2022/06/24 08:47:59;;;;;;;;;;;15.20;99.90;;;;;;5052998;28;19951;-77
2022/06/24 08:50:26;;;;;;;;;;;15.10;99.90;;;;;;5052524;28;19913;-76
2022/06/24 08:52:54;;;;;;;;;;;15.10;99.90;;;;;;5052737;28;19921;-75
2022/06/24 08:55:20;;;;;;;;;;;15.10;99.90;;;;;;5053047;28;19959;-76
2022/06/24 08:57:47;;;;;;;;;;;15.20;99.90;;;;;;5052592;28;19925;-76
2022/06/24 09:00:14;;;;;;;;;;;15.30;99.90;;;;;;5052662;28;19983;-76
2022/06/24 09:02:41;;;;;;;;;;;15.20;99.90;;;;;;5052620;28;19917;-76
2022/06/24 09:05:12;;;;;;;;;;;15.20;99.90;;;;;;5053079;28;19919;-76
2022/06/24 09:07:39;;;;;;;;;;;15.20;99.90;;;;;;5054427;28;20367;-76
2022/06/24 09:10:12;;;;;;;;;;;15.10;99.90;;;;;;5054684;28;19909;-77
2022/06/24 09:12:43;;;;;;;;;;;15.10;99.90;;;;;;5053563;28;20366;-75
2022/06/24 09:15:11;;;;;;;;;;;15.10;99.90;;;;;;5054531;28;19913;-76
2022/06/24 09:17:38;;;;;;;;;;;15.10;99.90;;;;;;5054287;28;19912;-77
2022/06/24 09:20:05;;;;;;;;;;;15.00;99.90;;;;;;5054611;28;20355;-76
2022/06/24 09:22:32;;;;;;;;;;;15.00;99.90;;;;;;5054572;28;20279;-76
2022/06/24 09:25:01;;;;;;;;;;;14.90;99.90;;;;;;5054393;28;19909;-76
2022/06/24 09:27:27;;;;;;;;;;;14.90;99.90;;;;;;5054477;28;19966;-76
2022/06/24 09:29:54;;;;;;;;;;;14.80;99.90;;;;;;5053775;28;19920;-77
2022/06/24 09:32:21;;;;;;;;;;;14.80;99.90;;;;;;5054336;28;20297;-77
2022/06/24 09:35:14;;;;;;;;;;;14.80;99.90;;;;;;5054355;28;19916;-77
2022/06/24 09:37:45;;;;;;;;;;;14.90;99.90;;;;;;5053570;28;19917;-77
2022/06/24 09:40:25;;;;;;;;;;;14.80;99.90;;;;;;5054039;28;19916;-77
2022/06/24 09:43:05;;;;;;;;;;;14.80;99.90;;;;;;5054041;28;19995;-76
2022/06/24 09:45:51;;;;;;;;;;;14.80;99.90;;;;;;5053719;28;19916;-77
2022/06/24 09:48:27;;;;;;;;;;;14.80;99.90;;;;;;5053937;28;19909;-77
2022/06/24 09:50:55;;;;;;;;;;;14.70;99.90;;;;;;5069259;28;19909;-76
2022/06/24 09:53:23;;;;;;;;;;;14.60;99.90;;;;;;5053541;28;19975;-76
2022/06/24 09:55:50;;;;;;;;;;;14.60;99.90;;;;;;5053511;28;19920;-75
2022/06/24 09:58:17;;;;;;;;;;;14.70;99.90;;;;;;5053836;28;19917;-76
2022/06/24 10:00:46;;;;;;;;;;;14.60;99.90;;;;;;5053561;28;19965;-76
2022/06/24 10:03:13;;;;;;;;;;;14.60;99.90;;;;;;5053615;28;19912;-76
2022/06/24 10:05:45;;;;;;;;;;;14.60;99.90;;;;;;5053530;28;19913;-75
2022/06/24 10:08:22;;;;;;;;;;;14.60;99.90;;;;;;5053566;28;19916;-76
2022/06/24 10:10:50;;;;;;;;;;;14.60;99.90;;;;;;5053526;28;20363;-76
2022/06/24 10:13:27;;;;;;;;;;;14.60;99.90;;;;;;5053640;28;20003;-75
2022/06/24 10:15:57;;;;;;;;;;;14.60;99.90;;;;;;5053105;28;19912;-76
2022/06/24 10:18:29;;;;;;;;;;;14.60;99.90;;;;;;5053426;28;20044;-76
2022/06/24 10:20:58;;;;;;;;;;;14.60;99.90;;;;;;5053387;28;19915;-75
2022/06/24 10:23:45;;;;;;;;;;;14.60;99.90;;;;;;5053194;28;19967;-76
2022/06/24 10:26:11;;;;;;;;;;;14.50;99.90;;;;;;5053590;28;19909;-76
2022/06/24 10:28:56;;;;;;;;;;;14.50;99.90;;;;;;5053575;28;19909;-76
2022/06/24 10:31:48;;;;;;;;;;;14.50;99.90;;;;;;5053221;28;19961;-77
2022/06/24 10:34:21;;;;;;;;;;;14.50;99.90;;;;;;5053306;28;19913;-76
2022/06/24 10:36:48;;;;;;;;;;;14.50;99.90;;;;;;5053278;28;19909;-73
2022/06/24 10:39:19;;;;;;;;;;;14.50;99.90;;;;;;5053247;28;19924;-76
2022/06/24 10:41:45;;;;;;;;;;;14.50;99.90;;;;;;5053063;28;19909;-76
2022/06/24 10:44:25;;;;;;;;;;;14.50;99.90;;;;;;5053053;28;19920;-76
2022/06/24 10:47:21;;;;;;;;;;;14.50;99.90;;;;;;5053172;28;19909;-75
2022/06/24 10:50:00;;;;;;;;;;;14.50;99.90;;;;;;5052258;28;20379;-76
2022/06/24 10:52:33;;;;;;;;;;;14.50;99.90;;;;;;5053044;28;20318;-75
2022/06/24 10:55:20;;;;;;;;;;;14.50;99.90;;;;;;5053033;28;19921;-74
2022/06/24 10:57:47;;;;;;;;;;;14.50;99.90;;;;;;5052690;28;19912;-75
2022/06/24 11:00:20;;;;;;;;;;;14.50;99.90;;;;;;5052835;28;20287;-75
2022/06/24 11:02:49;;;;;;;;;;;14.50;99.90;;;;;;5053121;28;19932;-75
2022/06/24 11:05:25;;;;;;;;;;;14.50;99.90;;;;;;5053014;28;19951;-75
2022/06/24 11:07:52;;;;;;;;;;;14.50;99.90;;;;;;5052781;28;19908;-75
2022/06/24 11:10:19;;;;;;;;;;;14.50;99.90;;;;;;5053094;28;20004;-76
2022/06/24 11:12:52;;;;;;;;;;;14.40;99.90;;;;;;5052979;28;19909;-75
2022/06/24 11:15:20;;;;;;;;;;;14.40;99.90;;;;;;5052870;28;20318;-76
2022/06/24 11:17:46;;;;;;;;;;;14.40;99.90;;;;;;5052593;28;19960;-76
2022/06/24 11:20:13;;;;;;;;;;;14.50;99.90;;;;;;5068238;28;20326;-76
2022/06/24 11:22:44;;;;;;;;;;;14.40;99.90;;;;;;5052909;28;19909;-75
2022/06/24 11:25:18;;;;;;;;;;;14.40;99.90;;;;;;5052875;28;20398;-75
2022/06/24 11:27:45;;;;;;;;;;;14.50;99.90;;;;;;5052714;28;19999;-76
2022/06/24 11:30:11;;;;;;;;;;;14.40;99.90;;;;;;5052557;28;19909;-76
2022/06/24 11:32:59;;;;;;;;;;;14.40;99.90;;;;;;5052664;28;20275;-76
2022/06/24 11:35:27;;;;;;;;;;;14.40;99.90;;;;;;5053536;28;19913;-76
2022/06/24 11:37:56;;;;;;;;;;;14.40;99.90;;;;;;5056283;28;19924;-74
2022/06/24 11:40:26;;;;;;;;;;;14.40;99.90;;;;;;5056493;28;19908;-76
2022/06/24 11:42:54;;;;;;;;;;;14.40;99.90;;;;;;5056261;28;20392;-76
2022/06/24 11:45:33;;;;;;;;;;;14.40;99.90;;;;;;5056394;28;19920;-76
2022/06/24 11:48:00;;;;;;;;;;;14.40;99.90;;;;;;5056418;28;19918;-73
2022/06/24 11:50:26;;;;;;;;;;;14.30;99.90;;;;;;5056268;28;19970;-75
2022/06/24 11:52:56;;;;;;;;;;;14.30;99.90;;;;;;5056090;28;19917;-74
2022/06/24 11:55:24;;;;;;;;;;;14.30;99.90;;;;;;5056190;28;19920;-76
2022/06/24 11:58:11;;;;;;;;;;;14.30;99.90;;;;;;5055848;28;20269;-76
2022/06/24 12:00:39;;;;;;;;;;;14.30;99.90;;;;;;5056062;28;19913;-76
2022/06/24 12:03:07;;;;;;;;;;;14.20;99.90;;;;;;5071338;28;19916;-76
2022/06/24 12:05:37;;;;;;;;;;;14.30;99.90;;;;;;5054460;28;19909;-76
2022/06/24 12:08:05;;;;;;;;;;;14.20;99.90;;;;;;5055899;28;19909;-76
2022/06/24 12:10:31;;;;;;;;;;;14.20;99.90;;;;;;5056068;28;19909;-76
2022/06/24 12:13:03;;;;;;;;;;;14.20;99.90;;;;;;5055858;28;19909;-76
2022/06/24 12:15:42;;;;;;;;;;;14.20;99.90;;;;;;5054409;28;20243;-74
2022/06/24 12:18:17;;;;;;;;;;;14.20;99.90;;;;;;5055716;28;19916;-77
2022/06/24 12:20:54;;;;;;;;;;;14.20;99.90;;;;;;5055775;28;19909;-75
2022/06/24 12:23:22;;;;;;;;;;;14.10;99.90;;;;;;5055714;28;19920;-75
2022/06/24 12:25:49;;;;;;;;;;;14.10;99.90;;;;;;5055627;28;19988;-77
2022/06/24 12:28:16;;;;;;;;;;;14.10;99.90;;;;;;5055691;28;19992;-76
2022/06/24 12:30:44;;;;;;;;;;;14.00;99.90;;;;;;5055434;28;19909;-74
2022/06/24 12:33:14;;;;;;;;;;;14.00;99.90;;;;;;5055607;28;19909;-77
2022/06/24 12:35:43;;;;;;;;;;;14.00;99.90;;;;;;5055266;28;19912;-76
2022/06/24 12:38:13;;;;;;;;;;;14.00;99.90;;;;;;5055352;28;20413;-77
2022/06/24 12:40:40;;;;;;;;;;;14.00;99.90;;;;;;5055440;28;19909;-77
2022/06/24 12:43:07;;;;;;;;;;;14.00;99.90;;;;;;5055342;28;19931;-76
2022/06/24 12:45:37;;;;;;;;;;;14.00;99.90;;;;;;5054975;28;19913;-76
2022/06/24 12:50:56;;;;;;;;;;;13.90;99.90;;;;;;5055631;28;19931;-77
2022/06/24 12:53:23;;;;;;;;;;;13.90;99.90;;;;;;5054857;28;19921;-76
2022/06/24 12:55:49;;;;;;;;;;;13.90;99.90;;;;;;5055009;28;20271;-75
2022/06/24 12:58:16;;;;;;;;;;;13.90;99.90;;;;;;5054983;28;19975;-76
2022/06/24 13:00:43;;;;;;;;;;;14.00;99.90;;;;;;5054913;28;19970;-75
2022/06/24 13:03:09;;;;;;;;;;;13.90;99.90;;;;;;5055054;28;19909;-76
2022/06/24 13:05:36;;;;;;;;;;;14.00;99.90;;;;;;5054773;28;19909;-76
2022/06/24 13:08:03;;;;;;;;;;;14.00;99.90;;;;;;5054882;28;20394;-76
2022/06/24 13:10:30;;;;;;;;;;;14.00;99.90;;;;;;5054755;28;20375;-76
2022/06/24 13:12:56;;;;;;;;;;;13.90;99.90;;;;;;5054811;28;19909;-76
2022/06/24 13:15:24;;;;;;;;;;;14.00;99.90;;;;;;5054709;28;19916;-77
2022/06/24 13:17:50;;;;;;;;;;;14.00;99.90;;;;;;5054462;28;20513;-76
2022/06/24 13:20:17;;;;;;;;;;;14.00;99.90;;;;;;5054637;28;19909;-76
2022/06/24 13:22:44;;;;;;;;;;;14.00;99.90;;;;;;5054542;28;19909;-77
2022/06/24 13:25:11;;;;;;;;;;;14.00;99.90;;;;;;5054459;28;19991;-76
2022/06/24 13:27:38;;;;;;;;;;;13.90;99.90;;;;;;5054419;28;19916;-78
2022/06/24 13:30:06;;;;;;;;;;;13.90;99.90;;;;;;5054219;28;20352;-78
2022/06/24 13:32:33;;;;;;;;;;;13.90;99.90;;;;;;5054486;28;19995;-76
2022/06/24 13:35:00;;;;;;;;;;;13.80;99.90;;;;;;5054275;28;20257;-75
2022/06/24 13:37:27;;;;;;;;;;;13.70;99.90;;;;;;5054319;28;19917;-77
2022/06/24 13:39:54;;;;;;;;;;;13.70;99.90;;;;;;5054100;28;19999;-77
2022/06/24 13:42:21;;;;;;;;;;;13.70;99.90;;;;;;5054192;28;19923;-77
2022/06/24 13:44:47;;;;;;;;;;;13.70;99.90;;;;;;5054179;28;19909;-77
2022/06/24 13:47:14;;;;;;;;;;;13.80;99.90;;;;;;5054146;28;19909;-76
2022/06/24 13:49:41;;;;;;;;;;;13.80;99.90;;;;;;5053790;28;20008;-74
2022/06/24 13:52:08;;;;;;;;;;;13.80;99.90;;;;;;5054198;28;19909;-73
2022/06/24 13:54:35;;;;;;;;;;;13.90;99.90;;;;;;5053875;28;19982;-74
2022/06/24 13:57:02;;;;;;;;;;;13.90;99.90;;;;;;5053860;28;19916;-76
2022/06/24 13:59:29;;;;;;;;;;;13.80;99.90;;;;;;5053040;28;19916;-74
2022/06/24 14:01:56;;;;;;;;;;;13.80;99.90;;;;;;5054024;28;20332;-73
2022/06/24 14:04:22;;;;;;;;;;;13.70;99.90;;;;;;5053780;28;19955;-74
2022/06/24 14:06:49;;;;;;;;;;;13.70;99.90;;;;;;5053935;28;19909;-75
2022/06/24 14:09:16;;;;;;;;;;;13.70;99.90;;;;;;5053947;28;19965;-74
2022/06/24 14:11:42;;;;;;;;;;;13.70;99.90;;;;;;5068870;28;19909;-75
2022/06/24 14:14:11;;;;;;;;;;;13.70;99.90;;;;;;5053539;28;20070;-75
2022/06/24 14:16:38;;;;;;;;;;;13.70;99.90;;;;;;5053684;28;19909;-75
2022/06/24 14:19:06;;;;;;;;;;;13.70;99.90;;;;;;5053389;28;19971;-75
2022/06/24 14:21:35;;;;;;;;;;;13.70;99.90;;;;;;5053351;28;19931;-75
2022/06/24 14:26:46;;;;;;;;;;;13.70;99.90;;;;;;5053853;28;19915;-74
2022/06/24 14:29:13;;;;;;;;;;;13.70;99.90;;;;;;5053311;28;19915;-73
2022/06/24 14:31:39;;;;;;;;;;;13.70;99.90;;;;;;5053136;28;19909;-74
2022/06/24 14:34:06;;;;;;;;;;;13.60;99.90;;;;;;5053294;28;19909;-75
2022/06/24 14:36:33;;;;;;;;;;;13.60;99.90;;;;;;5053447;28;20360;-74
2022/06/24 14:41:44;;;;;;;;;;;13.60;99.90;;;;;;5053444;28;20405;-74